INFORMACIÓN METAR y TAF
METAR FOR EDDB
ADDS - METARS form results

(0317 UTC 27 October 2021)
Data provider http://aviationweather.gov/metar/data/
 
METAR text: EDDB 270250Z 22009KT CAVOK 10/07 Q1021 NOSIG
Conditions at: EDDB (BERLIN/BRANDERNB, DE) observed 0250 UTC 27 October 2021
Temperature: 10.0°C (50°F)
Dewpoint: 7.0°C (45°F) [RH = 82%]
Pressure (altimeter): 30.15 inches Hg (1021.0 mb)
Winds: from the SW (220 degrees) at 10 MPH (9 knots; 4.6 m/s)
Visibility: 6 or more miles (10+ km)
Ceiling: ceiling and visibility are OK
Clouds: unknown
Weather: no significant weather observed at this time

METAR text: EDDB 270220Z 21007KT CAVOK 10/07 Q1021 NOSIG
Conditions at: EDDB (BERLIN/BRANDERNB, DE) observed 0220 UTC 27 October 2021
Temperature: 10.0°C (50°F)
Dewpoint: 7.0°C (45°F) [RH = 82%]
Pressure (altimeter): 30.15 inches Hg (1021.0 mb)
Winds: from the SSW (210 degrees) at 8 MPH (7 knots; 3.6 m/s)
Visibility: 6 or more miles (10+ km)
Ceiling: ceiling and visibility are OK
Clouds: unknown
Weather: no significant weather observed at this time

Forecast for: EDDB (BERLIN/BRANDERNB, DE)
Text: TAF EDDB 262300Z 2700/2724 22011KT 9999 FEW030
Forecast period: 0000 to 1500 UTC 27 October 2021
Forecast type: FROM: standard forecast or significant change
Winds: from the SW (220 degrees) at 13 MPH (11 knots; 5.7 m/s)
Visibility: 6 or more miles (10+ km)
Ceiling: at least 12,000 feet AGL
Clouds: few clouds at 3000 feet AGL
Weather: no significant weather forecast for this period
Text: BECMG 2715/2717 20006KT
Forecast period: 1500 UTC 27 October 2021 to 0000 UTC 28 October 2021
Forecast type: BECOMING: Conditions expected to become as follows by 1700 UTC 27 October 2021
Winds: from the SSW (200 degrees) at 7 MPH (6 knots; 3.1 m/s)
Visibility: 6 or more miles (10+ km)
Ceiling: at least 12,000 feet AGL
Clouds: few clouds at 3000 feet AGL
Weather: no significant weather forecast for this period